sensor_id;sensor_type;location;lat;lon;timestamp;pressure;altitude;pressure_sealevel;temperature;humidity
6194;BME280;3130;41.564;23.280;2023-03-26T00:00:23;98123.56;;;12.68;81.34
6194;BME280;3130;41.564;23.280;2023-03-26T00:02:50;98120.66;;;12.72;81.30
6194;BME280;3130;41.564;23.280;2023-03-26T00:05:17;98135.16;;;12.62;82.36
6194;BME280;3130;41.564;23.280;2023-03-26T00:07:46;98130.25;;;12.70;82.59
6194;BME280;3130;41.564;23.280;2023-03-26T00:10:13;98124.09;;;12.62;82.18
6194;BME280;3130;41.564;23.280;2023-03-26T00:12:40;98133.59;;;12.50;83.01
6194;BME280;3130;41.564;23.280;2023-03-26T00:15:09;98117.53;;;12.37;83.17
6194;BME280;3130;41.564;23.280;2023-03-26T00:17:36;98131.72;;;12.52;83.03
6194;BME280;3130;41.564;23.280;2023-03-26T00:20:04;98115.03;;;12.47;82.34
6194;BME280;3130;41.564;23.280;2023-03-26T00:22:33;98145.69;;;12.59;82.25
6194;BME280;3130;41.564;23.280;2023-03-26T00:25:00;98132.19;;;12.46;82.59
6194;BME280;3130;41.564;23.280;2023-03-26T00:27:27;98148.03;;;12.62;82.05
6194;BME280;3130;41.564;23.280;2023-03-26T00:29:54;98158.63;;;12.69;81.69
6194;BME280;3130;41.564;23.280;2023-03-26T00:32:23;98142.78;;;12.64;81.53
6194;BME280;3130;41.564;23.280;2023-03-26T00:34:52;98137.66;;;12.53;81.32
6194;BME280;3130;41.564;23.280;2023-03-26T00:37:20;98158.22;;;12.64;82.04
6194;BME280;3130;41.564;23.280;2023-03-26T00:39:51;98129.00;;;12.54;81.49
6194;BME280;3130;41.564;23.280;2023-03-26T00:42:18;98145.66;;;12.70;80.92
6194;BME280;3130;41.564;23.280;2023-03-26T00:44:45;98145.56;;;12.92;80.35
6194;BME280;3130;41.564;23.280;2023-03-26T00:47:15;98146.53;;;12.91;80.15
6194;BME280;3130;41.564;23.280;2023-03-26T00:49:44;98120.50;;;12.74;79.79
6194;BME280;3130;41.564;23.280;2023-03-26T00:52:11;98150.00;;;13.01;79.60
6194;BME280;3130;41.564;23.280;2023-03-26T00:54:38;98086.50;;;12.70;78.68
6194;BME280;3130;41.564;23.280;2023-03-26T00:57:05;98141.81;;;12.96;77.53
6194;BME280;3130;41.564;23.280;2023-03-26T00:59:35;98154.19;;;13.02;77.55
6194;BME280;3130;41.564;23.280;2023-03-26T01:02:02;98116.31;;;12.73;77.79
6194;BME280;3130;41.564;23.280;2023-03-26T01:04:32;98146.47;;;13.02;77.39
6194;BME280;3130;41.564;23.280;2023-03-26T01:07:03;98136.56;;;12.98;76.51
6194;BME280;3130;41.564;23.280;2023-03-26T01:09:33;98157.00;;;13.19;73.88
6194;BME280;3130;41.564;23.280;2023-03-26T01:12:02;98137.25;;;13.20;72.53
6194;BME280;3130;41.564;23.280;2023-03-26T01:14:31;98151.91;;;13.29;72.05
6194;BME280;3130;41.564;23.280;2023-03-26T01:16:59;98140.50;;;13.22;71.21
6194;BME280;3130;41.564;23.280;2023-03-26T01:19:30;98156.13;;;13.30;71.55
6194;BME280;3130;41.564;23.280;2023-03-26T01:22:04;98153.19;;;13.34;71.98
6194;BME280;3130;41.564;23.280;2023-03-26T01:24:35;98155.81;;;13.44;70.35
6194;BME280;3130;41.564;23.280;2023-03-26T01:27:18;98148.94;;;13.54;69.51
6194;BME280;3130;41.564;23.280;2023-03-26T01:29:52;98152.75;;;13.59;69.32
6194;BME280;3130;41.564;23.280;2023-03-26T01:32:47;98139.22;;;13.67;69.04
6194;BME280;3130;41.564;23.280;2023-03-26T01:35:28;98141.41;;;13.71;69.32
6194;BME280;3130;41.564;23.280;2023-03-26T01:38:07;98135.88;;;13.76;69.10
6194;BME280;3130;41.564;23.280;2023-03-26T01:40:41;98133.91;;;13.89;68.37
6194;BME280;3130;41.564;23.280;2023-03-26T01:43:18;98139.09;;;14.07;68.08
6194;BME280;3130;41.564;23.280;2023-03-26T01:45:48;98137.63;;;14.14;67.43
6194;BME280;3130;41.564;23.280;2023-03-26T01:48:17;98147.22;;;14.42;66.34
6194;BME280;3130;41.564;23.280;2023-03-26T01:50:44;98151.97;;;14.56;65.86
6194;BME280;3130;41.564;23.280;2023-03-26T01:53:13;98140.69;;;14.57;65.45
6194;BME280;3130;41.564;23.280;2023-03-26T01:55:50;98149.94;;;14.69;65.00
6194;BME280;3130;41.564;23.280;2023-03-26T01:58:28;98161.78;;;14.81;64.80
6194;BME280;3130;41.564;23.280;2023-03-26T02:01:05;98174.94;;;14.88;64.14
6194;BME280;3130;41.564;23.280;2023-03-26T02:03:42;98115.03;;;14.56;63.95
6194;BME280;3130;41.564;23.280;2023-03-26T02:06:16;98181.06;;;14.87;63.94
6194;BME280;3130;41.564;23.280;2023-03-26T02:08:49;98179.28;;;14.87;63.57
6194;BME280;3130;41.564;23.280;2023-03-26T02:11:19;98160.13;;;14.71;63.85
6194;BME280;3130;41.564;23.280;2023-03-26T02:13:47;98181.84;;;14.87;63.79
6194;BME280;3130;41.564;23.280;2023-03-26T02:16:15;98165.56;;;14.68;63.44
6194;BME280;3130;41.564;23.280;2023-03-26T02:18:43;98134.06;;;14.64;63.58
6194;BME280;3130;41.564;23.280;2023-03-26T02:21:13;98180.91;;;14.88;63.41
6194;BME280;3130;41.564;23.280;2023-03-26T02:23:45;98182.94;;;14.85;62.66
6194;BME280;3130;41.564;23.280;2023-03-26T02:26:14;98173.72;;;14.82;63.01
6194;BME280;3130;41.564;23.280;2023-03-26T02:28:43;98178.75;;;14.84;62.95
6194;BME280;3130;41.564;23.280;2023-03-26T02:31:10;98177.00;;;14.84;62.90
6194;BME280;3130;41.564;23.280;2023-03-26T02:33:38;98171.94;;;14.73;62.79
6194;BME280;3130;41.564;23.280;2023-03-26T02:36:06;98176.03;;;14.76;62.91
6194;BME280;3130;41.564;23.280;2023-03-26T02:38:35;98166.34;;;14.68;63.49
6194;BME280;3130;41.564;23.280;2023-03-26T02:41:02;98155.75;;;14.52;63.54
6194;BME280;3130;41.564;23.280;2023-03-26T02:43:30;98148.31;;;14.49;63.86
6194;BME280;3130;41.564;23.280;2023-03-26T02:45:58;98173.44;;;14.57;63.77
6194;BME280;3130;41.564;23.280;2023-03-26T02:48:25;98183.19;;;14.53;64.03
6194;BME280;3130;41.564;23.280;2023-03-26T02:50:52;98178.88;;;14.54;64.20
6194;BME280;3130;41.564;23.280;2023-03-26T02:53:20;98188.59;;;14.50;64.02
6194;BME280;3130;41.564;23.280;2023-03-26T02:55:48;98188.22;;;14.45;64.43
6194;BME280;3130;41.564;23.280;2023-03-26T02:58:15;98195.69;;;14.39;64.60
6194;BME280;3130;41.564;23.280;2023-03-26T03:00:42;98173.09;;;14.13;65.23
6194;BME280;3130;41.564;23.280;2023-03-26T03:03:11;98203.22;;;14.21;65.96
6194;BME280;3130;41.564;23.280;2023-03-26T03:05:38;98203.72;;;14.15;65.59
6194;BME280;3130;41.564;23.280;2023-03-26T03:08:08;98211.09;;;14.20;66.09
6194;BME280;3130;41.564;23.280;2023-03-26T03:10:35;98208.31;;;14.12;66.23
6194;BME280;3130;41.564;23.280;2023-03-26T03:13:02;98203.72;;;14.15;66.07
6194;BME280;3130;41.564;23.280;2023-03-26T03:15:32;98208.47;;;14.10;66.11
6194;BME280;3130;41.564;23.280;2023-03-26T03:17:59;98087.38;;;13.21;66.78
6194;BME280;3130;41.564;23.280;2023-03-26T03:20:27;98221.56;;;13.98;66.60
6194;BME280;3130;41.564;23.280;2023-03-26T03:22:55;98194.63;;;13.82;66.47
6194;BME280;3130;41.564;23.280;2023-03-26T03:25:22;98208.84;;;13.76;66.69
6194;BME280;3130;41.564;23.280;2023-03-26T03:27:50;98221.53;;;13.89;66.65
6194;BME280;3130;41.564;23.280;2023-03-26T03:30:18;98230.63;;;13.93;66.37
6194;BME280;3130;41.564;23.280;2023-03-26T03:32:45;98220.84;;;13.87;65.78
6194;BME280;3130;41.564;23.280;2023-03-26T03:35:12;98231.88;;;13.98;65.49
6194;BME280;3130;41.564;23.280;2023-03-26T03:37:41;98248.97;;;13.99;65.38
6194;BME280;3130;41.564;23.280;2023-03-26T03:40:09;98184.22;;;13.63;64.84
6194;BME280;3130;41.564;23.280;2023-03-26T03:42:36;98232.28;;;13.94;64.96
6194;BME280;3130;41.564;23.280;2023-03-26T03:45:04;98266.63;;;14.04;65.33
6194;BME280;3130;41.564;23.280;2023-03-26T03:47:31;98259.59;;;14.06;64.74
6194;BME280;3130;41.564;23.280;2023-03-26T03:49:58;98244.63;;;14.00;64.67
6194;BME280;3130;41.564;23.280;2023-03-26T03:52:25;98256.84;;;14.07;64.38
6194;BME280;3130;41.564;23.280;2023-03-26T03:54:54;98271.53;;;14.07;64.29
6194;BME280;3130;41.564;23.280;2023-03-26T03:57:22;98281.84;;;14.07;64.08
6194;BME280;3130;41.564;23.280;2023-03-26T03:59:49;98283.88;;;14.03;63.74
6194;BME280;3130;41.564;23.280;2023-03-26T04:02:16;98282.78;;;14.06;63.51
6194;BME280;3130;41.564;23.280;2023-03-26T04:04:50;98283.22;;;14.10;63.46
6194;BME280;3130;41.564;23.280;2023-03-26T04:07:17;98289.56;;;14.07;63.26
6194;BME280;3130;41.564;23.280;2023-03-26T04:09:44;98281.00;;;14.06;63.01
6194;BME280;3130;41.564;23.280;2023-03-26T04:12:13;98282.38;;;14.10;62.73
6194;BME280;3130;41.564;23.280;2023-03-26T04:14:41;98287.69;;;14.08;63.12
6194;BME280;3130;41.564;23.280;2023-03-26T04:17:08;98300.03;;;14.05;62.78
6194;BME280;3130;41.564;23.280;2023-03-26T04:19:38;98297.44;;;14.05;63.03
6194;BME280;3130;41.564;23.280;2023-03-26T04:22:05;98288.28;;;13.92;63.03
6194;BME280;3130;41.564;23.280;2023-03-26T04:24:32;98295.75;;;13.95;63.06
6194;BME280;3130;41.564;23.280;2023-03-26T04:27:05;98257.69;;;13.78;63.52
6194;BME280;3130;41.564;23.280;2023-03-26T04:29:41;98283.88;;;13.83;64.04
6194;BME280;3130;41.564;23.280;2023-03-26T04:32:12;98256.50;;;13.61;64.08
6194;BME280;3130;41.564;23.280;2023-03-26T04:34:44;98225.28;;;13.34;64.61
6194;BME280;3130;41.564;23.280;2023-03-26T04:37:18;98274.78;;;13.58;64.38
6194;BME280;3130;41.564;23.280;2023-03-26T04:39:49;98294.75;;;13.66;64.35
6194;BME280;3130;41.564;23.280;2023-03-26T04:42:16;98296.00;;;13.71;63.87
6194;BME280;3130;41.564;23.280;2023-03-26T04:44:46;98156.00;;;12.91;64.06
6194;BME280;3130;41.564;23.280;2023-03-26T04:47:16;98285.84;;;13.70;63.93
6194;BME280;3130;41.564;23.280;2023-03-26T04:49:44;98287.78;;;13.77;63.69
6194;BME280;3130;41.564;23.280;2023-03-26T04:52:12;98263.66;;;13.58;63.32
6194;BME280;3130;41.564;23.280;2023-03-26T04:54:42;98222.75;;;13.23;63.20
6194;BME280;3130;41.564;23.280;2023-03-26T04:57:14;98311.47;;;13.71;62.56
6194;BME280;3130;41.564;23.280;2023-03-26T04:59:43;98307.78;;;13.64;62.90
6194;BME280;3130;41.564;23.280;2023-03-26T05:02:12;98318.47;;;13.60;63.01
6194;BME280;3130;41.564;23.280;2023-03-26T05:04:39;98305.13;;;13.55;62.44
6194;BME280;3130;41.564;23.280;2023-03-26T05:07:10;98321.84;;;13.60;62.42
6194;BME280;3130;41.564;23.280;2023-03-26T05:09:37;98305.22;;;13.53;62.29
6194;BME280;3130;41.564;23.280;2023-03-26T05:12:04;98349.31;;;13.71;62.66
6194;BME280;3130;41.564;23.280;2023-03-26T05:14:31;98350.94;;;13.72;62.26
6194;BME280;3130;41.564;23.280;2023-03-26T05:17:00;98351.44;;;13.66;62.12
6194;BME280;3130;41.564;23.280;2023-03-26T05:19:31;98370.72;;;13.71;61.88
6194;BME280;3130;41.564;23.280;2023-03-26T05:21:59;98364.16;;;13.78;61.03
6194;BME280;3130;41.564;23.280;2023-03-26T05:24:27;98369.22;;;13.89;60.53
6194;BME280;3130;41.564;23.280;2023-03-26T05:26:55;98356.63;;;13.86;59.66
6194;BME280;3130;41.564;23.280;2023-03-26T05:29:23;98354.47;;;13.91;58.75
6194;BME280;3130;41.564;23.280;2023-03-26T05:31:50;98305.91;;;13.66;58.16
6194;BME280;3130;41.564;23.280;2023-03-26T05:34:18;98298.72;;;13.70;57.73
6194;BME280;3130;41.564;23.280;2023-03-26T05:36:50;98378.03;;;14.18;58.21
6194;BME280;3130;41.564;23.280;2023-03-26T05:39:17;98390.13;;;14.27;57.40
6194;BME280;3130;41.564;23.280;2023-03-26T05:41:47;98319.06;;;13.93;57.30
6194;BME280;3130;41.564;23.280;2023-03-26T05:44:14;98385.72;;;14.38;57.27
6194;BME280;3130;41.564;23.280;2023-03-26T05:46:41;98271.94;;;13.61;57.02
6194;BME280;3130;41.564;23.280;2023-03-26T05:49:08;98389.94;;;14.39;57.06
6194;BME280;3130;41.564;23.280;2023-03-26T05:51:35;98248.31;;;13.56;56.38
6194;BME280;3130;41.564;23.280;2023-03-26T05:54:04;98381.44;;;14.28;55.96
6194;BME280;3130;41.564;23.280;2023-03-26T05:56:31;98375.28;;;14.19;56.42
6194;BME280;3130;41.564;23.280;2023-03-26T05:58:58;98323.44;;;13.93;56.94
6194;BME280;3130;41.564;23.280;2023-03-26T06:01:25;98401.75;;;14.42;56.63
6194;BME280;3130;41.564;23.280;2023-03-26T06:03:53;98391.13;;;14.35;56.41
6194;BME280;3130;41.564;23.280;2023-03-26T06:06:20;98309.41;;;13.86;56.01
6194;BME280;3130;41.564;23.280;2023-03-26T06:08:50;98355.25;;;14.23;54.92
6194;BME280;3130;41.564;23.280;2023-03-26T06:11:18;98368.06;;;14.34;54.65
6194;BME280;3130;41.564;23.280;2023-03-26T06:13:46;98420.09;;;14.69;53.68
6194;BME280;3130;41.564;23.280;2023-03-26T06:16:14;98425.69;;;14.74;53.21
6194;BME280;3130;41.564;23.280;2023-03-26T06:18:41;98421.09;;;14.77;52.94
6194;BME280;3130;41.564;23.280;2023-03-26T06:21:08;98427.25;;;14.86;52.65
6194;BME280;3130;41.564;23.280;2023-03-26T06:23:36;98364.47;;;14.55;51.79
6194;BME280;3130;41.564;23.280;2023-03-26T06:26:03;98428.06;;;14.96;50.29
6194;BME280;3130;41.564;23.280;2023-03-26T06:28:32;98434.50;;;15.01;49.83
6194;BME280;3130;41.564;23.280;2023-03-26T06:31:00;98293.03;;;14.16;50.18
6194;BME280;3130;41.564;23.280;2023-03-26T06:33:27;98407.41;;;14.96;49.56
6194;BME280;3130;41.564;23.280;2023-03-26T06:35:54;98427.59;;;15.11;49.92
6194;BME280;3130;41.564;23.280;2023-03-26T06:38:22;98367.56;;;14.79;50.06
6194;BME280;3130;41.564;23.280;2023-03-26T06:40:49;98385.31;;;15.03;48.99
6194;BME280;3130;41.564;23.280;2023-03-26T06:43:18;98414.25;;;15.36;47.13
6194;BME280;3130;41.564;23.280;2023-03-26T06:45:49;98417.13;;;15.52;47.65
6194;BME280;3130;41.564;23.280;2023-03-26T06:48:16;98403.13;;;15.64;46.92
6194;BME280;3130;41.564;23.280;2023-03-26T06:50:44;98413.81;;;16.25;45.16
6194;BME280;3130;41.564;23.280;2023-03-26T06:53:11;98381.69;;;16.74;43.57
6194;BME280;3130;41.564;23.280;2023-03-26T06:55:38;98431.63;;;17.91;41.03
6194;BME280;3130;41.564;23.280;2023-03-26T06:58:05;98447.94;;;18.95;38.51
6194;BME280;3130;41.564;23.280;2023-03-26T07:00:32;98418.41;;;19.37;36.95
6194;BME280;3130;41.564;23.280;2023-03-26T07:03:02;98408.59;;;19.96;35.75
6194;BME280;3130;41.564;23.280;2023-03-26T07:05:29;98282.25;;;18.89;35.50
6194;BME280;3130;41.564;23.280;2023-03-26T07:07:57;98430.22;;;19.89;34.79
6194;BME280;3130;41.564;23.280;2023-03-26T07:10:24;98373.44;;;18.19;36.75
6194;BME280;3130;41.564;23.280;2023-03-26T07:12:52;98413.28;;;18.53;36.76
6194;BME280;3130;41.564;23.280;2023-03-26T07:15:19;98382.06;;;18.70;36.73
6194;BME280;3130;41.564;23.280;2023-03-26T07:17:47;98408.09;;;20.40;34.20
6194;BME280;3130;41.564;23.280;2023-03-26T07:20:15;98331.69;;;21.33;31.89
6194;BME280;3130;41.564;23.280;2023-03-26T07:22:43;98398.25;;;21.59;31.03
6194;BME280;3130;41.564;23.280;2023-03-26T07:25:11;98409.75;;;21.72;31.00
6194;BME280;3130;41.564;23.280;2023-03-26T07:27:45;98415.31;;;21.69;31.12
6194;BME280;3130;41.564;23.280;2023-03-26T07:30:22;98407.88;;;21.20;32.05
6194;BME280;3130;41.564;23.280;2023-03-26T07:32:54;98434.41;;;22.15;29.92
6194;BME280;3130;41.564;23.280;2023-03-26T07:35:28;98401.44;;;22.79;28.87
6194;BME280;3130;41.564;23.280;2023-03-26T07:38:09;98423.69;;;20.64;31.61
6194;BME280;3130;41.564;23.280;2023-03-26T07:40:45;98445.25;;;22.26;29.83
6194;BME280;3130;41.564;23.280;2023-03-26T07:43:24;98409.03;;;22.89;29.32
6194;BME280;3130;41.564;23.280;2023-03-26T07:45:55;98425.25;;;24.40;26.81
6194;BME280;3130;41.564;23.280;2023-03-26T07:48:24;98413.69;;;24.89;25.67
6194;BME280;3130;41.564;23.280;2023-03-26T07:50:54;98432.66;;;24.91;25.50
6194;BME280;3130;41.564;23.280;2023-03-26T07:53:22;98442.94;;;24.11;25.86
6194;BME280;3130;41.564;23.280;2023-03-26T07:55:52;98395.66;;;25.67;23.77
6194;BME280;3130;41.564;23.280;2023-03-26T08:01:19;98427.50;;;25.38;24.42
6194;BME280;3130;41.564;23.280;2023-03-26T08:04:02;98434.97;;;25.41;24.67
6194;BME280;3130;41.564;23.280;2023-03-26T08:06:34;98442.47;;;26.88;22.85
6194;BME280;3130;41.564;23.280;2023-03-26T08:09:09;98446.75;;;26.63;22.70
6194;BME280;3130;41.564;23.280;2023-03-26T08:11:44;98437.31;;;27.25;22.35
6194;BME280;3130;41.564;23.280;2023-03-26T08:14:24;98420.75;;;27.68;21.56
6194;BME280;3130;41.564;23.280;2023-03-26T08:16:58;98365.38;;;27.25;21.19
6194;BME280;3130;41.564;23.280;2023-03-26T08:19:36;98434.34;;;26.89;21.88
6194;BME280;3130;41.564;23.280;2023-03-26T08:22:11;98432.09;;;25.30;23.49
6194;BME280;3130;41.564;23.280;2023-03-26T08:24:46;98432.56;;;24.24;25.09
6194;BME280;3130;41.564;23.280;2023-03-26T08:27:22;98409.41;;;23.15;26.09
6194;BME280;3130;41.564;23.280;2023-03-26T08:29:58;98428.03;;;22.54;27.08
6194;BME280;3130;41.564;23.280;2023-03-26T08:32:28;98417.78;;;22.08;28.16
6194;BME280;3130;41.564;23.280;2023-03-26T08:34:55;98405.72;;;21.84;27.91
6194;BME280;3130;41.564;23.280;2023-03-26T08:37:26;98394.69;;;21.52;28.39
6194;BME280;3130;41.564;23.280;2023-03-26T08:39:53;98416.38;;;20.68;29.58
6194;BME280;3130;41.564;23.280;2023-03-26T08:42:52;98415.22;;;19.67;30.75
6194;BME280;3130;41.564;23.280;2023-03-26T08:45:57;98388.16;;;19.28;31.15
6194;BME280;3130;41.564;23.280;2023-03-26T08:54:56;98394.69;;;19.40;31.23
6194;BME280;3130;41.564;23.280;2023-03-26T08:57:55;98369.69;;;19.63;30.28
6194;BME280;3130;41.564;23.280;2023-03-26T09:00:41;98404.66;;;19.76;29.71
6194;BME280;3130;41.564;23.280;2023-03-26T09:06:44;98382.41;;;19.17;29.40
6194;BME280;3130;41.564;23.280;2023-03-26T09:09:50;98390.47;;;19.47;30.20
6194;BME280;3130;41.564;23.280;2023-03-26T09:12:52;98359.88;;;19.25;29.73
6194;BME280;3130;41.564;23.280;2023-03-26T09:25:24;98367.91;;;19.63;30.09
6194;BME280;3130;41.564;23.280;2023-03-26T09:28:28;98356.16;;;19.35;30.42
6194;BME280;3130;41.564;23.280;2023-03-26T09:31:18;98365.81;;;19.59;30.66
6194;BME280;3130;41.564;23.280;2023-03-26T09:33:55;98352.28;;;19.71;30.31
6194;BME280;3130;41.564;23.280;2023-03-26T09:36:54;98348.88;;;19.63;30.12
6194;BME280;3130;41.564;23.280;2023-03-26T09:39:33;98334.88;;;19.48;29.90
6194;BME280;3130;41.564;23.280;2023-03-26T09:42:08;98345.94;;;19.66;28.68
6194;BME280;3130;41.564;23.280;2023-03-26T09:50:45;98313.59;;;19.52;28.94
6194;BME280;3130;41.564;23.280;2023-03-26T09:53:26;98337.50;;;19.64;28.43
6194;BME280;3130;41.564;23.280;2023-03-26T09:56:09;98303.00;;;19.46;28.85
6194;BME280;3130;41.564;23.280;2023-03-26T09:58:55;98279.28;;;19.49;28.67
6194;BME280;3130;41.564;23.280;2023-03-26T10:01:36;98333.91;;;19.81;26.74
6194;BME280;3130;41.564;23.280;2023-03-26T10:04:30;98333.09;;;19.96;25.79
6194;BME280;3130;41.564;23.280;2023-03-26T10:07:07;98329.66;;;19.96;25.68
6194;BME280;3130;41.564;23.280;2023-03-26T10:09:47;98329.69;;;19.88;25.27
6194;BME280;3130;41.564;23.280;2023-03-26T10:12:27;98315.38;;;19.92;27.25
6194;BME280;3130;41.564;23.280;2023-03-26T10:15:10;98308.88;;;19.72;26.01
6194;BME280;3130;41.564;23.280;2023-03-26T10:17:53;98316.53;;;19.65;25.49
6194;BME280;3130;41.564;23.280;2023-03-26T10:20:32;98284.63;;;19.71;24.98
6194;BME280;3130;41.564;23.280;2023-03-26T10:23:19;98316.03;;;20.02;25.08
6194;BME280;3130;41.564;23.280;2023-03-26T10:26:04;98314.09;;;20.04;24.85
6194;BME280;3130;41.564;23.280;2023-03-26T10:28:47;98322.22;;;20.09;24.57
6194;BME280;3130;41.564;23.280;2023-03-26T10:31:42;98310.38;;;19.98;24.14
6194;BME280;3130;41.564;23.280;2023-03-26T10:34:30;98298.66;;;20.02;24.81
6194;BME280;3130;41.564;23.280;2023-03-26T10:37:07;98305.28;;;20.13;23.98
6194;BME280;3130;41.564;23.280;2023-03-26T10:39:59;98288.56;;;19.99;23.56
6194;BME280;3130;41.564;23.280;2023-03-26T10:42:49;98289.50;;;20.14;24.02
6194;BME280;3130;41.564;23.280;2023-03-26T10:45:34;98254.88;;;20.06;23.92
6194;BME280;3130;41.564;23.280;2023-03-26T10:51:15;98285.09;;;20.23;22.48
6194;BME280;3130;41.564;23.280;2023-03-26T10:53:48;98274.66;;;20.23;21.79
6194;BME280;3130;41.564;23.280;2023-03-26T10:56:22;98271.94;;;20.16;21.99
6194;BME280;3130;41.564;23.280;2023-03-26T10:58:51;98273.00;;;20.29;22.51
6194;BME280;3130;41.564;23.280;2023-03-26T11:01:27;98236.91;;;20.19;22.78
6194;BME280;3130;41.564;23.280;2023-03-26T11:04:06;98257.28;;;20.53;22.88
6194;BME280;3130;41.564;23.280;2023-03-26T11:06:45;98244.03;;;20.71;22.55
6194;BME280;3130;41.564;23.280;2023-03-26T11:09:23;98210.84;;;20.57;21.27
6194;BME280;3130;41.564;23.280;2023-03-26T11:12:00;98247.44;;;20.79;21.05
6194;BME280;3130;41.564;23.280;2023-03-26T11:14:32;98251.59;;;20.88;20.28
6194;BME280;3130;41.564;23.280;2023-03-26T11:17:07;98243.44;;;20.91;18.57
6194;BME280;3130;41.564;23.280;2023-03-26T11:19:46;98250.31;;;20.84;19.22
6194;BME280;3130;41.564;23.280;2023-03-26T11:22:24;98237.06;;;20.94;19.19
6194;BME280;3130;41.564;23.280;2023-03-26T11:25:25;98223.13;;;20.87;18.30
6194;BME280;3130;41.564;23.280;2023-03-26T11:28:03;98231.69;;;20.95;19.03
6194;BME280;3130;41.564;23.280;2023-03-26T11:30:40;98243.13;;;21.17;19.85
6194;BME280;3130;41.564;23.280;2023-03-26T11:33:16;98205.41;;;21.05;20.04
6194;BME280;3130;41.564;23.280;2023-03-26T11:35:47;98213.50;;;21.32;20.45
6194;BME280;3130;41.564;23.280;2023-03-26T11:38:18;98224.88;;;21.53;20.03
6194;BME280;3130;41.564;23.280;2023-03-26T11:40:49;98214.88;;;21.20;20.26
6194;BME280;3130;41.564;23.280;2023-03-26T11:43:23;98215.72;;;21.35;20.55
6194;BME280;3130;41.564;23.280;2023-03-26T11:45:51;98205.34;;;21.49;19.05
6194;BME280;3130;41.564;23.280;2023-03-26T11:48:22;98179.44;;;21.11;17.86
6194;BME280;3130;41.564;23.280;2023-03-26T11:50:56;98150.34;;;21.00;18.37
6194;BME280;3130;41.564;23.280;2023-03-26T11:53:28;98176.38;;;21.08;19.00
6194;BME280;3130;41.564;23.280;2023-03-26T11:56:01;98199.34;;;21.49;18.22
6194;BME280;3130;41.564;23.280;2023-03-26T11:58:33;98156.03;;;21.40;17.21
6194;BME280;3130;41.564;23.280;2023-03-26T12:01:12;98105.19;;;21.36;17.80
6194;BME280;3130;41.564;23.280;2023-03-26T12:03:40;98134.72;;;21.36;17.40
6194;BME280;3130;41.564;23.280;2023-03-26T12:06:21;98169.41;;;21.74;16.07
6194;BME280;3130;41.564;23.280;2023-03-26T12:08:50;98166.28;;;21.78;16.95
6194;BME280;3130;41.564;23.280;2023-03-26T12:11:18;98160.03;;;21.79;17.18
6194;BME280;3130;41.564;23.280;2023-03-26T12:13:51;98055.34;;;21.45;16.91
6194;BME280;3130;41.564;23.280;2023-03-26T12:16:20;98152.56;;;22.05;16.54
6194;BME280;3130;41.564;23.280;2023-03-26T12:18:57;98154.84;;;22.08;16.83
6194;BME280;3130;41.564;23.280;2023-03-26T12:21:26;98107.38;;;21.61;16.69
6194;BME280;3130;41.564;23.280;2023-03-26T12:23:56;98117.09;;;21.38;15.03
6194;BME280;3130;41.564;23.280;2023-03-26T12:26:35;98128.00;;;21.71;15.72
6194;BME280;3130;41.564;23.280;2023-03-26T12:29:09;98142.59;;;21.80;15.87
6194;BME280;3130;41.564;23.280;2023-03-26T12:31:53;98139.16;;;21.79;15.89
6194;BME280;3130;41.564;23.280;2023-03-26T12:34:22;98142.47;;;22.02;14.49
6194;BME280;3130;41.564;23.280;2023-03-26T12:37:01;98062.44;;;21.59;14.28
6194;BME280;3130;41.564;23.280;2023-03-26T12:39:34;98015.25;;;21.32;16.39
6194;BME280;3130;41.564;23.280;2023-03-26T12:42:04;97998.97;;;21.30;16.70
6194;BME280;3130;41.564;23.280;2023-03-26T12:44:42;98047.44;;;21.82;15.81
6194;BME280;3130;41.564;23.280;2023-03-26T12:47:16;98040.78;;;21.94;14.30
6194;BME280;3130;41.564;23.280;2023-03-26T12:49:46;98113.22;;;22.56;14.16
6194;BME280;3130;41.564;23.280;2023-03-26T12:55:36;97978.06;;;21.73;15.51
6194;BME280;3130;41.564;23.280;2023-03-26T12:58:18;98063.06;;;22.11;15.46
6194;BME280;3130;41.564;23.280;2023-03-26T13:00:57;98001.28;;;21.68;16.60
6194;BME280;3130;41.564;23.280;2023-03-26T13:03:41;97998.31;;;21.71;17.84
6194;BME280;3130;41.564;23.280;2023-03-26T13:06:29;98022.72;;;21.99;17.67
6194;BME280;3130;41.564;23.280;2023-03-26T13:09:21;98020.13;;;22.20;18.14
6194;BME280;3130;41.564;23.280;2023-03-26T13:12:07;98033.94;;;22.49;17.75
6194;BME280;3130;41.564;23.280;2023-03-26T13:17:34;98073.31;;;22.69;17.39
6194;BME280;3130;41.564;23.280;2023-03-26T13:20:09;98094.91;;;22.77;16.24
6194;BME280;3130;41.564;23.280;2023-03-26T13:22:45;98090.25;;;22.73;15.75
6194;BME280;3130;41.564;23.280;2023-03-26T13:25:26;98085.59;;;22.68;16.24
6194;BME280;3130;41.564;23.280;2023-03-26T13:28:15;98011.88;;;22.17;14.96
6194;BME280;3130;41.564;23.280;2023-03-26T13:30:49;98038.63;;;22.19;14.68
6194;BME280;3130;41.564;23.280;2023-03-26T13:33:41;98085.47;;;22.55;14.67
6194;BME280;3130;41.564;23.280;2023-03-26T13:36:15;98087.84;;;22.36;14.60
6194;BME280;3130;41.564;23.280;2023-03-26T13:38:53;98009.53;;;21.86;14.30
6194;BME280;3130;41.564;23.280;2023-03-26T13:41:35;98078.28;;;22.43;15.03
6194;BME280;3130;41.564;23.280;2023-03-26T13:44:13;98058.06;;;22.51;14.92
6194;BME280;3130;41.564;23.280;2023-03-26T13:46:46;98091.22;;;22.72;13.26
6194;BME280;3130;41.564;23.280;2023-03-26T13:49:18;98085.94;;;22.86;13.56
6194;BME280;3130;41.564;23.280;2023-03-26T13:51:49;98087.38;;;23.10;13.80
6194;BME280;3130;41.564;23.280;2023-03-26T13:54:22;98046.78;;;22.72;13.35
6194;BME280;3130;41.564;23.280;2023-03-26T13:57:00;98061.66;;;22.92;13.38
6194;BME280;3130;41.564;23.280;2023-03-26T13:59:34;98075.31;;;23.15;13.00
6194;BME280;3130;41.564;23.280;2023-03-26T14:02:10;98074.91;;;23.12;13.01
6194;BME280;3130;41.564;23.280;2023-03-26T14:04:43;98052.44;;;23.24;13.42
6194;BME280;3130;41.564;23.280;2023-03-26T14:07:15;98069.38;;;23.28;13.62
6194;BME280;3130;41.564;23.280;2023-03-26T14:09:51;98059.78;;;22.86;13.58
6194;BME280;3130;41.564;23.280;2023-03-26T14:12:36;98064.56;;;22.55;14.26
6194;BME280;3130;41.564;23.280;2023-03-26T14:15:14;98044.00;;;22.52;14.60
6194;BME280;3130;41.564;23.280;2023-03-26T14:20:39;97936.75;;;21.77;13.20